Language selection

Weather shortcuts

Eastern Shore: Past 24 Hour Conditions

 

West Chedabucto Bay - 44489

10:00 AM AST 23 February 2024Buoy position: 45.49N 61.14W
Disclaimer

This table is a summary of hourly weather conditions for the past 24 hours.
Please note that these observations might not always be representative of weather conditions over their associated marine area.

Date / Time
(AST)
Wind(knots) Wave height(m) Wave period(s) Pressure(kPa) Air tempC) Water tempC)
23 February 2024
10:00 WSW 6 gusts 9 0.78 8.9 100.7 -2 1
9:00 WNW 3 gusts 5 0.82 8.7 100.7 -2 1
8:00 WNW 7 gusts 11 0.92 8.6 100.6 -2 1
7:00 WNW 9 gusts 12 0.87 8.9 100.6 -2 1
6:00 NNW 9 gusts 12 0.88 8.4 100.5 -1 1
5:00 N 11 gusts 13 0.95 9.1 100.5 -1 1
4:00 N 14 gusts 17 1.00 9.0 100.5 -1 1
3:00 N 10 gusts 12 1.01 8.7 100.5 -1 1
2:00 N 9 gusts 11 1.10 8.6 100.4 -1 1
1:00 N 12 gusts 14 1.09 8.5 100.4 -1 1
0:00 N 11 gusts 15 1.05 8.2 100.4 -1 1
22 February 2024
23:00 NNE 11 gusts 15 1.08 7.6 100.5 -1 1
22:00 NE 13 gusts 15 1.09 7.5 100.5 -1 1
21:00 NE 13 gusts 16 1.11 6.9 100.7 -1 1
20:00 ENE 10 gusts 13 1.05 6.9 100.8 -1 1
19:00 ENE 11 gusts 13 1.00 6.5 100.9 -1 1
18:00 ENE 15 gusts 18 0.95 6.3 100.9 -1 1
17:00 ENE 10 gusts 12 0.85 5.9 101.1 -1 1
16:00 ENE 12 gusts 15 0.76 5.6 101.2 0 1
15:00 E 12 gusts 17 0.80 5.3 101.3 0 1
14:00 ESE 13 gusts 17 0.76 5.0 101.5 -1 1
13:00 ESE 14 gusts 17 0.73 4.8 101.7 -1 1
12:00 ESE 16 gusts 18 0.72 4.4 101.9 -1 1
11:00 SE 17 gusts 21 0.73 4.1 102.0 0 1
10:00 SE 15 gusts 18 0.68 4.0 102.2 -1 1

Zoom-in to make a selection

Map of Atlantic - Newfoundland marine weather areas Banquereau - 44139 East Chedabucto Bay – 44488 West Chedabucto Bay – 44489 Blanc-Sablon Airport Cap Whittle Chevery Natashquan Airport Heath Point Îles de la Madeleine Airport Miscou Island Eskasoni (First Nations) Grand Étang Ingonish Beach North Mountain St.Paul Island J.A. Douglas McCurdy Sydney Airport Charlottetown Airport East Point North Cape Argentia Berry Hill Bonavista Burgeo Cape Race Corner Brook Daniel's Harbour Englee Ferolle Point La Scie Port aux Basques Sagona Island St. Anthony Airport St. John's Int'l Airport St. Lawrence Stephenville Airport Twillingate Winterland Branch Hill Wreckhouse Grates Cove Pool's Island Marticot Island Long Pond Cartwright Airport Mary's Harbour
Legend:
buoy Buoy
land station Land Station

Atlantic - Newfoundland Area

Another Region

Date modified: